Time;durP1;ratioP1;P1;durP2;ratioP2;P2;SDS_P1;SDS_P2;PMS_P1;PMS_P2;Temp;Humidity;BMP_temperature;BMP_pressure;BME280_temperature;BME280_humidity;BME280_pressure;Samples;Min_cycle;Max_cycle;Signal;HPM_P1;HPM_P2
2021/11/26 00:02:22;;;;;;;10.05;7.32;;;9.40;61.60;;;;;;4905501;29;20032;-90
2021/11/26 00:04:49;;;;;;;12.27;7.55;;;9.40;61.50;;;;;;4885886;29;20035;-92
2021/11/26 00:07:16;;;;;;;11.68;7.75;;;9.40;61.50;;;;;;4900324;29;20028;-91
2021/11/26 00:09:42;;;;;;;10.40;7.38;;;9.40;61.40;;;;;;4903936;29;20176;-88
2021/11/26 00:12:08;;;;;;;10.80;7.97;;;9.40;61.50;;;;;;4912416;29;20032;-88
2021/11/26 00:14:41;;;;;;;11.70;7.95;;;9.40;61.30;;;;;;4921225;29;20012;-86
2021/11/26 00:17:14;;;;;;;10.52;7.60;;;9.40;61.30;;;;;;4934782;29;20067;-90
2021/11/26 00:19:41;;;;;;;10.45;7.60;;;9.40;61.30;;;;;;4919145;29;20031;-89
2021/11/26 00:22:08;;;;;;;9.40;7.32;;;9.40;61.20;;;;;;4922518;29;20099;-91
2021/11/26 00:24:34;;;;;;;11.95;7.78;;;9.40;61.20;;;;;;4899630;29;20532;-88
2021/11/26 00:26:59;;;;;;;12.55;7.82;;;9.40;61.20;;;;;;4899175;29;20130;-89
2021/11/26 00:29:25;;;;;;;12.07;8.18;;;9.40;61.20;;;;;;4899078;29;20274;-90
2021/11/26 00:31:52;;;;;;;10.02;8.18;;;9.40;61.10;;;;;;4898948;29;20036;-91
2021/11/26 00:34:17;;;;;;;10.13;7.70;;;9.40;61.10;;;;;;4913760;29;20040;-88
2021/11/26 00:36:43;;;;;;;10.85;7.15;;;9.40;61.00;;;;;;4882176;29;20095;-91
2021/11/26 00:39:10;;;;;;;10.95;8.25;;;9.40;61.00;;;;;;4915405;29;20044;-91
2021/11/26 00:41:36;;;;;;;11.70;7.72;;;9.40;61.00;;;;;;4913634;29;20040;-91
2021/11/26 00:44:03;;;;;;;11.93;7.95;;;9.30;60.90;;;;;;4914605;29;20036;-91
2021/11/26 00:46:29;;;;;;;10.98;8.50;;;9.30;61.00;;;;;;4914641;29;20040;-91
2021/11/26 00:48:56;;;;;;;12.57;7.72;;;9.40;61.00;;;;;;4913937;29;20039;-92
2021/11/26 00:51:22;;;;;;;10.43;8.10;;;9.30;60.90;;;;;;4894922;29;20064;-92
2021/11/26 00:53:48;;;;;;;11.85;8.05;;;9.30;60.90;;;;;;4914967;29;20088;-95
2021/11/26 00:56:14;;;;;;;11.10;8.27;;;9.40;60.90;;;;;;4915264;29;20150;-91
2021/11/26 00:58:40;;;;;;;12.25;8.35;;;9.30;60.80;;;;;;4914294;29;20035;-92
2021/11/26 01:01:05;;;;;;;10.60;8.00;;;9.30;60.80;;;;;;4916878;29;20079;-91
2021/11/26 01:03:31;;;;;;;10.70;8.18;;;9.30;60.80;;;;;;4924035;29;20040;-89
2021/11/26 01:05:57;;;;;;;11.60;8.73;;;9.30;60.90;;;;;;4920529;29;20044;-87
2021/11/26 01:08:23;;;;;;;10.70;8.40;;;9.30;60.80;;;;;;4893986;29;20039;-91
2021/11/26 01:10:50;;;;;;;11.23;8.30;;;9.30;60.80;;;;;;4896481;29;20028;-93
2021/11/26 01:13:17;;;;;;;9.95;8.00;;;9.30;60.80;;;;;;4896966;29;20036;-92
2021/11/26 01:15:44;;;;;;;11.35;8.23;;;9.30;60.90;;;;;;4913809;29;20044;-94
2021/11/26 01:18:12;;;;;;;11.35;8.63;;;9.30;60.70;;;;;;4897523;29;20063;-92
2021/11/26 01:20:39;;;;;;;12.70;8.95;;;9.30;60.60;;;;;;4920750;29;20032;-88
2021/11/26 01:23:05;;;;;;;11.55;8.35;;;9.30;60.60;;;;;;4902370;29;20040;-93
2021/11/26 01:25:32;;;;;;;12.13;8.75;;;9.30;60.60;;;;;;4914278;29;20071;-93
2021/11/26 01:27:59;;;;;;;10.80;8.45;;;9.30;60.60;;;;;;4881367;29;20032;-88
2021/11/26 01:30:29;;;;;;;13.55;8.93;;;9.30;60.60;;;;;;4914184;29;20060;-93
2021/11/26 01:33:01;;;;;;;13.25;8.82;;;9.30;60.50;;;;;;4918564;29;20036;-93
2021/11/26 01:35:27;;;;;;;12.15;8.98;;;9.30;60.50;;;;;;4913777;29;20032;-91
2021/11/26 01:37:53;;;;;;;12.05;9.10;;;9.30;60.50;;;;;;4913324;29;20046;-91
2021/11/26 01:40:20;;;;;;;12.55;9.02;;;9.30;60.50;;;;;;4896115;29;20419;-87
2021/11/26 01:42:47;;;;;;;12.77;8.90;;;9.30;60.50;;;;;;4913334;29;20560;-91
2021/11/26 01:45:14;;;;;;;11.23;8.77;;;9.30;60.40;;;;;;4893472;29;20063;-92
2021/11/26 01:47:41;;;;;;;13.77;8.73;;;9.30;60.40;;;;;;4912336;29;20036;-89
2021/11/26 01:50:08;;;;;;;12.82;9.93;;;9.30;60.30;;;;;;4912344;29;21319;-91
2021/11/26 01:52:34;;;;;;;14.35;9.95;;;9.20;60.30;;;;;;4895688;29;20044;-91
2021/11/26 01:55:00;;;;;;;13.93;9.77;;;9.20;60.30;;;;;;4892438;29;20042;-89
2021/11/26 01:57:27;;;;;;;12.75;9.65;;;9.30;60.40;;;;;;4913020;29;20143;-89
2021/11/26 01:59:53;;;;;;;12.68;9.20;;;9.20;60.30;;;;;;4896742;29;20032;-91
2021/11/26 02:02:19;;;;;;;13.18;9.27;;;9.20;60.30;;;;;;4896164;29;20641;-88
2021/11/26 02:04:45;;;;;;;13.93;9.35;;;9.20;60.30;;;;;;4895797;29;20032;-90
2021/11/26 02:07:12;;;;;;;13.82;9.60;;;9.20;60.40;;;;;;4895961;29;20086;-90
2021/11/26 02:09:38;;;;;;;14.45;9.48;;;9.20;60.40;;;;;;4913049;29;20078;-89
2021/11/26 02:12:04;;;;;;;12.60;9.25;;;9.20;60.40;;;;;;4895636;29;20052;-89
2021/11/26 02:14:31;;;;;;;11.43;8.95;;;9.20;60.30;;;;;;4912742;29;20044;-91
2021/11/26 02:16:57;;;;;;;13.70;9.95;;;9.20;60.50;;;;;;4894008;29;20040;-92
2021/11/26 02:19:25;;;;;;;13.13;9.73;;;9.20;60.40;;;;;;4912127;29;20035;-89
2021/11/26 02:21:52;;;;;;;10.90;9.30;;;9.20;60.40;;;;;;4895954;29;20048;-91
2021/11/26 02:24:19;;;;;;;11.15;8.95;;;9.20;60.40;;;;;;4890900;29;20071;-89
2021/11/26 02:26:47;;;;;;;13.07;10.30;;;9.20;60.50;;;;;;4894546;29;20127;-91
2021/11/26 02:29:15;;;;;;;12.35;9.57;;;9.20;60.40;;;;;;4912350;29;20029;-92
2021/11/26 02:31:42;;;;;;;12.10;9.65;;;9.20;60.30;;;;;;4881062;29;20043;-93
2021/11/26 02:34:09;;;;;;;13.45;9.77;;;9.20;60.40;;;;;;4911114;29;20047;-91
2021/11/26 02:36:36;;;;;;;14.65;9.82;;;9.20;60.30;;;;;;4920552;29;20035;-93
2021/11/26 02:39:08;;;;;;;12.10;9.45;;;9.20;60.20;;;;;;4895748;29;20150;-89
2021/11/26 02:41:34;;;;;;;13.68;9.50;;;9.20;60.10;;;;;;4911999;29;20047;-91
2021/11/26 02:44:01;;;;;;;12.65;9.27;;;9.20;60.00;;;;;;4894678;29;20032;-90
2021/11/26 02:46:27;;;;;;;13.30;9.75;;;9.20;60.00;;;;;;4894328;29;20036;-89
2021/11/26 02:48:52;;;;;;;11.90;9.32;;;9.20;60.00;;;;;;4911895;29;20036;-90
2021/11/26 02:51:18;;;;;;;13.45;10.10;;;9.20;60.00;;;;;;4912104;29;21292;-89
2021/11/26 02:53:44;;;;;;;16.10;10.63;;;9.20;60.00;;;;;;4894597;29;20499;-89
2021/11/26 02:56:10;;;;;;;12.10;9.82;;;9.20;60.00;;;;;;4895093;29;20123;-91
2021/11/26 02:58:36;;;;;;;14.07;9.50;;;9.20;60.00;;;;;;4916686;29;20040;-91
2021/11/26 03:01:03;;;;;;;15.65;10.48;;;9.20;59.90;;;;;;4899202;29;20036;-90
2021/11/26 03:03:29;;;;;;;13.82;10.13;;;9.20;59.80;;;;;;4899314;29;20091;-92
2021/11/26 03:05:59;;;;;;;13.40;10.65;;;9.20;59.80;;;;;;4916605;29;20028;-91
2021/11/26 03:08:26;;;;;;;15.68;10.55;;;9.20;59.80;;;;;;4909643;29;20036;-95
2021/11/26 03:10:52;;;;;;;15.15;10.20;;;9.20;59.70;;;;;;4899061;29;20135;-89
2021/11/26 03:13:18;;;;;;;15.38;11.00;;;9.20;59.70;;;;;;4911620;29;20566;-90
2021/11/26 03:15:44;;;;;;;14.95;10.77;;;9.20;59.60;;;;;;4899278;29;20031;-92
2021/11/26 03:18:15;;;;;;;13.40;10.27;;;9.20;59.60;;;;;;4915624;29;20574;-92
2021/11/26 03:20:41;;;;;;;15.07;10.38;;;9.20;59.50;;;;;;4913462;29;20036;-89
2021/11/26 03:23:07;;;;;;;14.50;10.73;;;9.10;59.50;;;;;;4914298;29;20047;-89
2021/11/26 03:25:33;;;;;;;16.13;11.00;;;9.10;59.50;;;;;;4887040;29;20044;-93
2021/11/26 03:27:59;;;;;;;14.40;10.30;;;9.20;59.80;;;;;;4900279;29;20115;-90
2021/11/26 03:30:26;;;;;;;12.95;9.40;;;9.10;59.80;;;;;;4895613;29;20142;-90
2021/11/26 03:32:55;;;;;;;13.52;9.70;;;9.20;59.70;;;;;;4913709;29;20040;-92
2021/11/26 03:35:22;;;;;;;15.27;10.75;;;9.20;59.60;;;;;;4916503;29;20063;-93
2021/11/26 03:37:50;;;;;;;14.38;10.02;;;9.20;59.50;;;;;;4897986;29;20479;-93
2021/11/26 03:40:19;;;;;;;16.00;10.50;;;9.20;59.50;;;;;;4900418;29;20032;-93
2021/11/26 03:42:46;;;;;;;14.00;9.77;;;9.20;59.40;;;;;;4885610;29;20039;-92
2021/11/26 03:45:13;;;;;;;15.75;10.35;;;9.20;59.40;;;;;;4924385;29;20044;-91
2021/11/26 03:47:39;;;;;;;16.58;10.75;;;9.20;59.40;;;;;;4904160;29;20036;-90
2021/11/26 03:50:06;;;;;;;14.82;10.55;;;9.20;59.30;;;;;;4924328;29;20033;-92
2021/11/26 03:52:33;;;;;;;14.48;10.90;;;9.20;59.30;;;;;;4923876;29;20056;-94
2021/11/26 03:54:59;;;;;;;14.05;10.20;;;9.20;59.40;;;;;;4904792;29;20499;-89
2021/11/26 03:57:25;;;;;;;14.23;10.35;;;9.20;59.30;;;;;;4922006;29;20028;-93
2021/11/26 03:59:51;;;;;;;13.60;10.20;;;9.20;59.30;;;;;;4915901;29;20024;-94
2021/11/26 04:02:17;;;;;;;13.23;10.15;;;9.10;59.20;;;;;;4915339;29;20028;-92
2021/11/26 04:04:42;;;;;;;15.48;10.43;;;9.20;59.20;;;;;;4883032;29;20072;-90
2021/11/26 04:07:08;;;;;;;14.90;10.50;;;9.10;59.10;;;;;;4898395;29;20036;-91
2021/11/26 04:09:34;;;;;;;14.50;11.15;;;9.20;59.10;;;;;;4894436;29;20154;-91
2021/11/26 04:12:00;;;;;;;14.48;10.68;;;9.20;59.00;;;;;;4916502;29;20024;-90
2021/11/26 04:14:27;;;;;;;17.98;10.35;;;9.10;59.00;;;;;;4877619;29;20036;-88
2021/11/26 04:16:52;;;;;;;14.27;10.73;;;9.10;58.90;;;;;;4912631;29;20534;-92
2021/11/26 04:19:18;;;;;;;15.32;10.27;;;9.10;58.80;;;;;;4897164;29;20095;-88
2021/11/26 04:21:44;;;;;;;14.52;11.30;;;9.10;58.80;;;;;;4879097;29;20054;-89
2021/11/26 04:24:10;;;;;;;15.10;10.32;;;9.10;58.90;;;;;;4898259;29;20447;-94
2021/11/26 04:26:36;;;;;;;15.63;10.48;;;9.10;58.70;;;;;;4896498;29;20044;-92
2021/11/26 04:29:03;;;;;;;15.68;11.13;;;9.10;58.70;;;;;;4881643;29;20039;-89
2021/11/26 04:31:29;;;;;;;15.45;11.40;;;9.10;58.60;;;;;;4913654;29;20039;-92
2021/11/26 04:33:55;;;;;;;13.48;10.35;;;9.10;58.60;;;;;;4897312;29;20503;-93
2021/11/26 04:36:23;;;;;;;14.05;10.07;;;9.10;58.70;;;;;;4881834;29;20028;-92
2021/11/26 04:38:49;;;;;;;13.57;10.32;;;9.10;58.80;;;;;;4898155;29;20099;-95
2021/11/26 04:41:15;;;;;;;14.48;10.60;;;9.10;58.80;;;;;;4915862;29;20047;-93
2021/11/26 04:43:41;;;;;;;13.55;9.82;;;9.10;58.90;;;;;;4886917;29;20043;-92
2021/11/26 04:46:07;;;;;;;14.90;10.20;;;9.10;59.10;;;;;;4886073;29;20531;-93
2021/11/26 04:48:33;;;;;;;13.85;9.73;;;9.10;58.90;;;;;;4897399;29;20123;-93
2021/11/26 04:51:00;;;;;;;13.73;10.60;;;9.20;59.10;;;;;;4914272;29;20572;-90
2021/11/26 04:53:25;;;;;;;14.60;10.18;;;9.20;58.90;;;;;;4876125;29;20032;-92
2021/11/26 04:55:51;;;;;;;15.60;10.20;;;9.20;58.70;;;;;;4882405;29;20503;-92
2021/11/26 04:58:17;;;;;;;14.05;10.38;;;9.10;58.50;;;;;;4897436;29;20032;-92
2021/11/26 05:00:44;;;;;;;13.30;9.98;;;9.10;58.50;;;;;;4898565;29;20396;-92
2021/11/26 05:03:10;;;;;;;13.95;10.40;;;9.10;58.40;;;;;;4897289;29;20470;-93
2021/11/26 05:05:36;;;;;;;13.13;10.00;;;9.10;58.40;;;;;;4898401;29;20036;-92
2021/11/26 05:08:02;;;;;;;13.77;10.70;;;9.10;58.40;;;;;;4896878;29;20039;-92
2021/11/26 05:10:28;;;;;;;14.50;9.57;;;9.10;58.40;;;;;;4898131;29;20040;-90
2021/11/26 05:12:58;;;;;;;14.70;9.57;;;9.10;58.30;;;;;;4881586;29;20500;-91
2021/11/26 05:15:30;;;;;;;13.18;10.55;;;9.10;58.50;;;;;;4884286;29;20036;-92
2021/11/26 05:18:01;;;;;;;13.07;9.50;;;9.10;58.30;;;;;;4898475;29;20084;-91
2021/11/26 05:20:30;;;;;;;12.63;9.73;;;9.10;58.20;;;;;;4891604;29;20036;-90
2021/11/26 05:22:56;;;;;;;12.80;9.45;;;9.10;58.10;;;;;;4913983;29;20414;-92
2021/11/26 05:25:22;;;;;;;13.35;9.75;;;9.10;58.10;;;;;;4916467;29;20036;-91
2021/11/26 05:27:49;;;;;;;11.90;9.48;;;9.10;58.10;;;;;;4913840;29;20032;-89
2021/11/26 05:30:15;;;;;;;13.68;9.65;;;9.10;58.00;;;;;;4887575;29;20086;-90
2021/11/26 05:32:41;;;;;;;13.57;10.18;;;9.10;57.90;;;;;;4917876;29;20039;-91
2021/11/26 05:35:10;;;;;;;12.43;9.73;;;9.10;57.90;;;;;;4886204;29;20060;-91
2021/11/26 05:37:36;;;;;;;14.88;10.15;;;9.10;57.90;;;;;;4920760;29;20047;-90
2021/11/26 05:40:04;;;;;;;13.32;9.60;;;9.10;57.90;;;;;;4900522;29;20028;-93
2021/11/26 05:42:31;;;;;;;13.80;9.65;;;9.10;57.80;;;;;;4919307;29;20047;-94
2021/11/26 05:44:57;;;;;;;13.48;9.57;;;9.10;57.80;;;;;;4913352;29;20036;-91
2021/11/26 05:47:23;;;;;;;15.52;9.95;;;9.00;57.70;;;;;;4897257;29;20269;-92
2021/11/26 05:49:48;;;;;;;12.40;9.68;;;9.00;57.70;;;;;;4899390;29;20039;-93
2021/11/26 05:52:15;;;;;;;14.27;9.65;;;9.00;57.80;;;;;;4921573;29;20040;-88
2021/11/26 05:54:41;;;;;;;13.48;10.02;;;9.00;57.90;;;;;;4895236;29;20062;-92
2021/11/26 05:57:07;;;;;;;11.65;9.55;;;9.00;57.90;;;;;;4913643;29;20040;-91
2021/11/26 05:59:33;;;;;;;14.27;9.75;;;9.00;58.00;;;;;;4924436;29;20044;-92
2021/11/26 06:01:59;;;;;;;13.82;10.05;;;9.00;58.00;;;;;;4897336;29;20127;-91
2021/11/26 06:04:26;;;;;;;14.02;9.85;;;9.00;58.00;;;;;;4912567;29;20036;-89
2021/11/26 06:06:52;;;;;;;13.52;9.82;;;9.00;58.10;;;;;;4898636;29;20040;-91
2021/11/26 06:09:18;;;;;;;12.13;9.50;;;9.00;58.10;;;;;;4915379;29;20032;-93
2021/11/26 06:11:44;;;;;;;13.35;9.93;;;9.00;58.10;;;;;;4917875;29;20076;-92
2021/11/26 06:14:10;;;;;;;13.65;10.10;;;9.00;58.00;;;;;;4913250;29;20059;-88
2021/11/26 06:16:36;;;;;;;15.40;11.57;;;9.00;58.00;;;;;;4897425;29;20040;-88
2021/11/26 06:19:02;;;;;;;15.57;10.23;;;9.00;58.00;;;;;;4916980;29;20114;-89
2021/11/26 06:21:28;;;;;;;13.25;9.98;;;9.00;58.00;;;;;;4916574;29;20047;-89
2021/11/26 06:23:54;;;;;;;13.80;10.63;;;9.00;58.00;;;;;;4897928;29;20055;-88
2021/11/26 06:26:19;;;;;;;13.88;9.95;;;9.00;58.00;;;;;;4918370;29;20427;-89
2021/11/26 06:28:45;;;;;;;16.40;10.65;;;9.00;58.10;;;;;;4900486;29;20032;-92
2021/11/26 06:31:11;;;;;;;14.50;9.82;;;9.00;58.10;;;;;;4899340;29;20467;-89
2021/11/26 06:33:37;;;;;;;17.20;10.20;;;9.00;58.10;;;;;;4914878;29;20036;-91
2021/11/26 06:36:03;;;;;;;12.43;9.70;;;9.00;58.70;;;;;;4895427;29;20040;-89
2021/11/26 06:38:29;;;;;;;12.80;9.65;;;9.00;58.10;;;;;;4912138;29;20091;-88
2021/11/26 06:40:55;;;;;;;13.80;9.95;;;8.90;58.10;;;;;;4893667;29;21403;-84
2021/11/26 06:43:21;;;;;;;14.07;9.43;;;9.00;58.10;;;;;;4893848;29;20044;-88
2021/11/26 06:45:47;;;;;;;13.07;9.52;;;9.00;58.10;;;;;;4892849;29;20555;-88
2021/11/26 06:48:13;;;;;;;15.45;10.48;;;9.00;58.10;;;;;;4893179;29;20036;-88
2021/11/26 06:50:39;;;;;;;14.93;9.80;;;8.90;58.10;;;;;;4910902;29;20400;-89
2021/11/26 06:53:06;;;;;;;15.27;9.57;;;9.00;58.10;;;;;;4910768;29;20028;-87
2021/11/26 06:55:33;;;;;;;15.52;10.02;;;9.00;58.10;;;;;;4909945;29;20426;-86
2021/11/26 06:57:59;;;;;;;13.52;9.40;;;9.00;58.20;;;;;;4910478;29;20068;-86
2021/11/26 07:00:25;;;;;;;13.57;10.10;;;9.00;58.20;;;;;;4894126;29;20063;-87
2021/11/26 07:02:51;;;;;;;14.50;9.80;;;9.00;58.20;;;;;;4893158;29;20414;-85
2021/11/26 07:05:18;;;;;;;17.50;9.90;;;9.00;58.30;;;;;;4893294;29;20048;-86
2021/11/26 07:07:44;;;;;;;14.88;9.95;;;9.00;58.40;;;;;;4910639;29;20028;-86
2021/11/26 07:10:13;;;;;;;12.63;9.25;;;8.90;59.00;;;;;;4910613;29;20080;-88
2021/11/26 07:12:40;;;;;;;14.27;9.68;;;9.00;58.50;;;;;;4908313;29;20047;-86
2021/11/26 07:15:08;;;;;;;12.82;9.10;;;9.00;58.60;;;;;;4893522;29;20055;-87
2021/11/26 07:17:34;;;;;;;16.60;10.18;;;9.00;58.60;;;;;;4892927;29;20595;-87
2021/11/26 07:20:01;;;;;;;13.43;8.88;;;9.00;58.60;;;;;;4909186;29;20039;-87
2021/11/26 07:22:27;;;;;;;17.73;10.40;;;9.00;58.60;;;;;;4910227;29;20040;-87
2021/11/26 07:24:53;;;;;;;14.50;10.10;;;9.00;58.60;;;;;;4908893;29;20570;-88
2021/11/26 07:27:19;;;;;;;15.27;10.23;;;9.00;58.60;;;;;;4907619;29;20079;-85
2021/11/26 07:29:45;;;;;;;15.05;10.18;;;9.00;58.60;;;;;;4909197;29;20032;-87
2021/11/26 07:32:12;;;;;;;15.80;9.77;;;9.00;58.60;;;;;;4910496;29;20028;-86
2021/11/26 07:34:41;;;;;;;16.23;10.02;;;9.00;58.60;;;;;;4909326;29;20511;-86
2021/11/26 07:37:09;;;;;;;16.55;10.30;;;9.00;59.20;;;;;;4909503;29;20032;-87
2021/11/26 07:39:37;;;;;;;14.70;9.55;;;9.00;58.70;;;;;;4909278;29;20044;-86
2021/11/26 07:42:10;;;;;;;13.27;9.35;;;9.00;58.60;;;;;;4890548;29;20654;-87
2021/11/26 07:44:37;;;;;;;17.23;9.82;;;9.00;58.70;;;;;;4882151;29;20032;-85
2021/11/26 07:47:05;;;;;;;14.15;9.48;;;9.00;58.60;;;;;;4896480;29;20087;-85
2021/11/26 07:49:32;;;;;;;11.75;9.30;;;9.00;58.70;;;;;;4895931;29;20459;-85
2021/11/26 07:52:00;;;;;;;14.63;9.13;;;9.00;58.80;;;;;;4910656;29;20419;-86
2021/11/26 07:54:26;;;;;;;13.30;8.82;;;9.00;58.70;;;;;;4913316;29;20044;-87
2021/11/26 07:56:53;;;;;;;15.55;9.70;;;9.00;58.70;;;;;;4914329;29;20124;-86
2021/11/26 07:59:20;;;;;;;13.38;9.45;;;9.00;58.70;;;;;;4915063;29;20044;-85
2021/11/26 08:01:47;;;;;;;11.98;8.63;;;9.00;58.70;;;;;;4881190;29;20131;-86
2021/11/26 08:04:15;;;;;;;15.05;9.48;;;9.00;58.60;;;;;;4894492;29;20040;-87
2021/11/26 08:06:46;;;;;;;13.05;9.00;;;9.00;58.60;;;;;;4892615;29;20031;-86
2021/11/26 08:09:17;;;;;;;15.13;9.23;;;9.10;58.70;;;;;;4914503;29;20112;-87
2021/11/26 08:11:44;;;;;;;16.73;9.07;;;9.10;58.70;;;;;;4916598;29;20559;-87
2021/11/26 08:14:10;;;;;;;14.18;9.10;;;9.10;58.70;;;;;;4916686;29;20083;-86
2021/11/26 08:16:37;;;;;;;15.13;8.95;;;9.10;58.70;;;;;;4914818;29;20074;-83
2021/11/26 08:19:07;;;;;;;13.43;9.25;;;9.10;58.70;;;;;;4882371;29;20047;-87
2021/11/26 08:21:34;;;;;;;15.73;9.68;;;9.10;58.80;;;;;;4913995;29;20032;-88
2021/11/26 08:24:01;;;;;;;14.82;9.43;;;9.10;58.80;;;;;;4913425;29;20127;-85
2021/11/26 08:26:27;;;;;;;13.38;8.95;;;9.10;58.80;;;;;;4912935;29;20040;-87
2021/11/26 08:28:53;;;;;;;15.48;9.68;;;9.10;58.90;;;;;;4915988;29;20038;-86
2021/11/26 08:31:19;;;;;;;13.77;9.30;;;9.10;59.00;;;;;;4897070;29;20119;-85
2021/11/26 08:33:45;;;;;;;17.50;9.18;;;9.10;59.00;;;;;;4913989;29;20508;-86
2021/11/26 08:36:11;;;;;;;13.30;8.75;;;9.10;59.00;;;;;;4903866;29;20036;-87
2021/11/26 08:38:37;;;;;;;13.63;8.75;;;9.10;59.00;;;;;;4900310;29;20507;-85
2021/11/26 08:41:03;;;;;;;12.07;7.97;;;9.10;59.00;;;;;;4922313;29;20114;-85
2021/11/26 08:43:29;;;;;;;13.38;9.15;;;9.20;59.10;;;;;;4922505;29;20036;-87
2021/11/26 08:45:55;;;;;;;16.70;10.05;;;9.20;59.10;;;;;;4907793;29;20067;-86
2021/11/26 08:48:21;;;;;;;14.20;8.43;;;9.10;59.00;;;;;;4922108;29;20088;-85
2021/11/26 08:50:47;;;;;;;12.63;8.93;;;9.10;59.00;;;;;;4904822;29;20040;-86
2021/11/26 08:53:14;;;;;;;15.07;9.02;;;9.10;58.90;;;;;;4907335;29;20032;-85
2021/11/26 08:55:45;;;;;;;15.13;9.20;;;9.10;58.90;;;;;;4922105;29;20040;-86
2021/11/26 08:58:13;;;;;;;16.10;9.35;;;9.20;59.00;;;;;;4919379;29;20036;-88
2021/11/26 09:00:41;;;;;;;13.55;9.57;;;9.20;59.00;;;;;;4905059;29;20533;-85
2021/11/26 09:03:07;;;;;;;14.18;9.30;;;9.20;59.10;;;;;;4903645;29;20111;-87
2021/11/26 09:05:35;;;;;;;14.75;9.15;;;9.20;59.00;;;;;;4918825;29;20051;-87
2021/11/26 09:08:04;;;;;;;14.63;8.95;;;9.20;59.00;;;;;;4912584;29;20114;-85
2021/11/26 09:10:34;;;;;;;12.63;8.80;;;9.20;59.10;;;;;;4895346;29;20028;-86
2021/11/26 09:13:00;;;;;;;13.90;8.65;;;9.20;59.10;;;;;;4912109;29;20466;-87
2021/11/26 09:15:27;;;;;;;12.20;8.57;;;9.20;59.10;;;;;;4912580;29;20235;-87
2021/11/26 09:17:53;;;;;;;11.82;8.45;;;9.20;59.10;;;;;;4912179;29;20056;-88
2021/11/26 09:20:20;;;;;;;13.45;8.85;;;9.10;59.10;;;;;;4894681;29;20119;-87
2021/11/26 09:22:47;;;;;;;13.35;9.00;;;9.20;59.10;;;;;;4912225;29;20039;-88
2021/11/26 09:25:14;;;;;;;13.00;8.88;;;9.20;59.10;;;;;;4895196;29;20039;-87
2021/11/26 09:27:40;;;;;;;12.70;8.80;;;9.20;59.20;;;;;;4896643;29;20384;-87
2021/11/26 09:30:09;;;;;;;14.90;8.75;;;9.20;59.10;;;;;;4895010;29;20036;-88
2021/11/26 09:32:35;;;;;;;12.35;8.80;;;9.20;59.20;;;;;;4894954;29;20055;-88
2021/11/26 09:35:02;;;;;;;12.63;8.95;;;9.20;59.20;;;;;;4912288;29;20046;-86
2021/11/26 09:37:28;;;;;;;13.77;9.30;;;9.20;59.20;;;;;;4911967;29;20500;-87
2021/11/26 09:39:54;;;;;;;13.00;9.18;;;9.20;59.40;;;;;;4894564;29;20032;-89
2021/11/26 09:42:20;;;;;;;12.13;6.07;;;9.20;59.40;;;;;;4879032;29;20531;-87
2021/11/26 09:44:46;;;;;;;9.93;5.95;;;9.20;62.80;;;;;;4895116;29;20490;-83
2021/11/26 09:47:13;;;;;;;10.10;5.90;;;9.40;65.50;;;;;;4911713;29;20096;-88
2021/11/26 09:49:39;;;;;;;11.48;6.30;;;9.70;66.30;;;;;;4895941;29;20031;-86
2021/11/26 09:52:05;;;;;;;29.58;7.65;;;9.80;65.60;;;;;;4915034;29;20518;-86
2021/11/26 09:54:39;;;;;;;11.60;5.95;;;10.00;64.70;;;;;;4916377;29;20035;-87
2021/11/26 09:57:07;;;;;;;15.32;7.30;;;10.00;64.00;;;;;;4898490;29;20040;-86
2021/11/26 09:59:34;;;;;;;10.73;6.50;;;10.10;63.30;;;;;;4918047;29;20047;-87
2021/11/26 10:02:18;;;;;;;11.48;7.10;;;10.10;62.90;;;;;;4915539;29;20051;-86
2021/11/26 10:04:55;;;;;;;12.85;7.50;;;10.20;62.40;;;;;;4914414;29;20040;-86
2021/11/26 10:07:21;;;;;;;13.77;8.95;;;10.10;62.00;;;;;;4914155;29;20035;-86
2021/11/26 10:09:47;;;;;;;11.05;7.55;;;10.20;61.70;;;;;;4908410;29;20406;-86
2021/11/26 10:12:14;;;;;;;11.70;7.88;;;10.20;61.50;;;;;;4915544;29;20391;-86
2021/11/26 10:14:45;;;;;;;11.32;7.50;;;10.10;61.30;;;;;;4911758;29;20126;-86
2021/11/26 10:17:22;;;;;;;14.50;8.60;;;10.10;61.30;;;;;;4907907;29;20141;-87
2021/11/26 10:19:51;;;;;;;11.25;7.97;;;10.10;61.20;;;;;;4915093;29;20042;-86
2021/11/26 10:22:38;;;;;;;11.82;7.32;;;10.10;61.30;;;;;;4895644;29;20079;-89
2021/11/26 10:25:10;;;;;;;11.07;7.55;;;10.10;61.80;;;;;;4882363;29;20043;-89
2021/11/26 10:27:46;;;;;;;11.68;7.78;;;10.10;62.30;;;;;;4883463;29;20051;-91
2021/11/26 10:30:22;;;;;;;10.40;7.22;;;10.20;62.30;;;;;;4898779;29;20157;-91
2021/11/26 10:33:04;;;;;;;13.93;8.27;;;10.20;62.30;;;;;;4895368;29;20456;-91
2021/11/26 10:35:35;;;;;;;12.85;8.05;;;10.20;62.40;;;;;;4898606;29;20042;-91
2021/11/26 10:38:09;;;;;;;10.65;7.85;;;10.20;62.50;;;;;;4898537;29;20291;-88
2021/11/26 10:40:39;;;;;;;11.18;7.55;;;10.20;62.60;;;;;;4885921;29;20442;-91
2021/11/26 10:43:16;;;;;;;12.70;7.68;;;10.20;62.90;;;;;;4898382;29;20418;-90
2021/11/26 10:59:49;;;;;;;10.98;6.93;;;10.30;63.90;;;;;;4913143;29;20036;-88
2021/11/26 11:02:25;;;;;;;12.23;7.28;;;10.30;63.90;;;;;;4897853;29;20035;-88
2021/11/26 11:04:51;;;;;;;10.75;7.22;;;10.30;64.00;;;;;;4910854;29;20070;-88
2021/11/26 11:07:18;;;;;;;12.95;6.85;;;10.30;64.00;;;;;;4893851;29;20044;-89
2021/11/26 11:09:57;;;;;;;11.40;7.30;;;10.30;64.00;;;;;;4897274;29;20036;-90
2021/11/26 11:12:33;;;;;;;11.35;7.22;;;10.30;64.00;;;;;;4898324;29;20055;-91
2021/11/26 11:15:03;;;;;;;;;;;10.30;64.00;;;;;;4917954;29;20036;-89
2021/11/26 11:17:30;;;;;;;13.30;7.40;;;10.40;64.00;;;;;;4914414;29;19936;-91
2021/11/26 11:20:00;;;;;;;11.30;7.75;;;10.40;63.90;;;;;;4917913;29;20511;-90
2021/11/26 11:22:27;;;;;;;10.85;7.45;;;10.40;64.00;;;;;;4903198;29;20063;-91
2021/11/26 11:24:53;;;;;;;12.80;7.72;;;10.40;64.00;;;;;;4901505;29;20104;-90
2021/11/26 11:27:20;;;;;;;12.32;7.95;;;10.40;63.80;;;;;;4884386;29;20036;-89
2021/11/26 11:29:46;;;;;;;11.52;8.07;;;10.40;63.70;;;;;;4902129;29;20085;-89
2021/11/26 11:32:12;;;;;;;10.35;7.25;;;10.50;63.70;;;;;;4918292;29;20429;-89
2021/11/26 11:34:40;;;;;;;12.43;7.90;;;10.40;63.60;;;;;;4885691;29;20906;-89
2021/11/26 11:37:09;;;;;;;11.40;8.00;;;10.50;63.60;;;;;;4898193;29;20507;-89
2021/11/26 11:39:53;;;;;;;13.50;7.57;;;10.50;63.60;;;;;;4884165;29;20035;-90
2021/11/26 11:42:27;;;;;;;9.63;7.18;;;10.50;63.50;;;;;;4918259;29;20495;-89
2021/11/26 11:45:07;;;;;;;12.25;7.28;;;10.50;63.50;;;;;;4902310;29;20044;-90
2021/11/26 11:47:34;;;;;;;14.23;7.97;;;10.50;63.50;;;;;;4919441;29;20036;-89
2021/11/26 11:50:12;;;;;;;9.77;7.22;;;10.60;63.50;;;;;;4900909;29;20032;-89
2021/11/26 11:52:40;;;;;;;10.90;7.68;;;10.50;63.40;;;;;;4895460;29;20092;-89
2021/11/26 11:55:17;;;;;;;10.73;7.45;;;10.50;63.30;;;;;;4885354;29;20036;-90
2021/11/26 11:57:43;;;;;;;12.45;8.20;;;10.60;63.30;;;;;;4901277;29;20047;-90
2021/11/26 12:00:18;;;;;;;14.05;7.93;;;10.50;63.20;;;;;;4902437;29;20039;-93
2021/11/26 12:02:46;;;;;;;9.77;7.50;;;10.50;63.10;;;;;;4903745;29;20036;-96
2021/11/26 12:05:20;;;;;;;12.85;7.40;;;10.60;63.20;;;;;;4921223;29;20118;-88
2021/11/26 12:07:46;;;;;;;10.52;6.80;;;10.60;63.10;;;;;;4870655;29;20080;-91
2021/11/26 12:10:15;;;;;;;12.38;8.38;;;10.60;63.20;;;;;;4897896;29;20031;-90
2021/11/26 12:12:53;;;;;;;11.93;7.65;;;10.60;63.20;;;;;;4900663;29;20105;-91
2021/11/26 12:15:27;;;;;;;13.50;7.72;;;10.60;63.30;;;;;;4886233;29;20072;-91
2021/11/26 12:18:04;;;;;;;13.20;7.07;;;10.60;63.30;;;;;;4899243;29;20057;-90
2021/11/26 12:20:31;;;;;;;10.88;7.00;;;10.60;63.40;;;;;;4898007;29;20047;-90
2021/11/26 12:23:04;;;;;;;10.88;7.25;;;10.60;63.50;;;;;;4897990;29;20084;-91
2021/11/26 12:28:12;;;;;;;12.27;8.88;;;10.60;63.30;;;;;;4913286;29;20025;-90
2021/11/26 12:30:43;;;;;;;11.95;8.25;;;10.60;63.20;;;;;;4880926;29;20039;-89
2021/11/26 12:33:19;;;;;;;11.50;7.53;;;10.70;63.20;;;;;;4893370;29;20874;-89
2021/11/26 12:36:00;;;;;;;12.82;8.10;;;10.70;63.20;;;;;;4909639;29;20056;-90
2021/11/26 12:38:38;;;;;;;14.75;8.63;;;10.70;63.10;;;;;;4883678;29;20029;-88
2021/11/26 12:41:05;;;;;;;10.40;7.50;;;10.70;63.00;;;;;;4910203;29;20174;-90
2021/11/26 12:43:47;;;;;;;12.10;7.97;;;10.70;62.90;;;;;;4895074;29;20032;-89
2021/11/26 12:46:25;;;;;;;11.90;8.23;;;10.70;62.80;;;;;;4896205;29;20041;-90
2021/11/26 12:51:48;;;;;;;11.23;7.57;;;10.70;62.90;;;;;;4894592;29;20032;-90
2021/11/26 12:54:30;;;;;;;10.63;7.93;;;10.70;63.00;;;;;;4878249;29;20530;-90
2021/11/26 12:57:02;;;;;;;11.95;7.43;;;10.70;62.90;;;;;;4887928;29;20082;-92
2021/11/26 12:59:29;;;;;;;11.43;7.88;;;10.70;62.80;;;;;;4906443;29;20041;-92
2021/11/26 13:01:55;;;;;;;12.27;7.55;;;10.80;62.90;;;;;;4891795;29;20040;-91
2021/11/26 13:04:21;;;;;;;10.05;7.43;;;10.80;62.90;;;;;;4893722;29;20539;-90
2021/11/26 13:06:48;;;;;;;10.60;7.93;;;10.80;63.00;;;;;;4893368;29;20047;-89